createdAt,value
2022-09-12T00:01:46.499Z,18.17
2022-09-12T00:06:48.461Z,18.21
2022-09-12T00:11:50.331Z,18.29
2022-09-12T00:16:52.536Z,18.27
2022-09-12T00:21:55.034Z,18.19
2022-09-12T00:26:56.874Z,18.18
2022-09-12T00:31:58.711Z,18.16
2022-09-12T00:37:00.527Z,18.16
2022-09-12T00:42:02.693Z,18.08
2022-09-12T00:47:11.542Z,17.96
2022-09-12T00:52:27.058Z,17.97
2022-09-12T00:57:52.598Z,17.91
2022-09-12T01:03:01.252Z,17.93
2022-09-12T01:08:04.685Z,17.94
2022-09-12T01:13:09.264Z,17.93
2022-09-12T01:18:16.632Z,17.91
2022-09-12T01:23:29.659Z,17.94
2022-09-12T01:29:16.086Z,17.86
2022-09-12T01:34:26.463Z,17.63
2022-09-12T01:39:40.357Z,17.57
2022-09-12T01:44:57.494Z,17.57
2022-09-12T01:50:14.008Z,17.65
2022-09-12T01:55:49.946Z,17.65
2022-09-12T02:01:23.375Z,17.68
2022-09-12T02:06:52.394Z,17.52
2022-09-12T02:11:58.480Z,17.46
2022-09-12T02:17:12.210Z,17.57
2022-09-12T02:22:18.254Z,17.52
2022-09-12T02:27:30.636Z,17.49
2022-09-12T02:33:01.510Z,17.38
2022-09-12T02:38:03.258Z,17.24
2022-09-12T02:43:06.437Z,17.18
2022-09-12T02:48:21.025Z,17.25
2022-09-12T02:53:23.365Z,17.32
2022-09-12T02:58:29.388Z,17.35
2022-09-12T03:03:43.661Z,17.27
2022-09-12T03:08:56.969Z,17.10
2022-09-12T03:14:07.554Z,16.96
2022-09-12T03:19:34.435Z,17.07
2022-09-12T03:24:43.352Z,16.98
2022-09-12T03:29:48.029Z,17.02
2022-09-12T03:34:49.895Z,16.93
2022-09-12T03:39:51.753Z,16.99
2022-09-12T03:44:53.589Z,16.92
2022-09-12T03:49:55.408Z,16.96
2022-09-12T03:54:57.238Z,16.98
2022-09-12T03:59:59.102Z,16.98
2022-09-12T04:05:01.099Z,16.99
2022-09-12T04:10:03.606Z,16.87
2022-09-12T04:15:07.608Z,16.90
2022-09-12T04:20:09.652Z,16.79
2022-09-12T04:25:13.277Z,16.76
2022-09-12T04:30:15.141Z,16.80
2022-09-12T04:35:17.157Z,16.83
2022-09-12T04:40:19.393Z,16.93
2022-09-12T04:45:21.204Z,16.84
2022-09-12T04:50:23.014Z,16.84
2022-09-12T04:55:25.436Z,16.89
2022-09-12T05:00:27.725Z,16.93
2022-09-12T05:05:29.532Z,16.84
2022-09-12T05:10:31.389Z,16.93
2022-09-12T05:15:33.426Z,16.92
2022-09-12T05:20:35.280Z,16.95
2022-09-12T05:25:37.253Z,17.08
2022-09-12T05:30:39.128Z,17.18
2022-09-12T05:35:41.792Z,17.24
2022-09-12T05:40:43.774Z,17.23
2022-09-12T05:45:45.621Z,17.30
2022-09-12T05:50:47.534Z,17.38
2022-09-12T05:55:49.435Z,17.41
2022-09-12T06:00:51.241Z,17.44
2022-09-12T06:05:53.043Z,17.51
2022-09-12T06:11:02.271Z,17.58
2022-09-12T06:16:06.367Z,17.67
2022-09-12T06:21:13.134Z,17.78
2022-09-12T06:26:17.160Z,17.76
2022-09-12T06:31:21.460Z,17.85
2022-09-12T06:36:28.944Z,17.86
2022-09-12T06:41:32.052Z,17.88
2022-09-12T06:46:33.938Z,17.96
2022-09-12T06:51:38.704Z,17.93
2022-09-12T06:56:40.882Z,17.96
2022-09-12T07:01:42.775Z,17.99
2022-09-12T07:06:44.974Z,18.05
2022-09-12T07:11:47.378Z,18.08
2022-09-12T07:16:49.210Z,18.18
2022-09-12T07:21:54.227Z,18.32
2022-09-12T07:27:00.329Z,18.39
2022-09-12T07:32:02.498Z,18.45
2022-09-12T07:37:04.682Z,18.48
2022-09-12T07:42:08.054Z,18.58
2022-09-12T07:47:11.950Z,18.69
2022-09-12T07:52:13.752Z,18.76
2022-09-12T07:57:15.857Z,18.89
2022-09-12T08:02:17.893Z,18.99
2022-09-12T08:07:20.177Z,19.27
2022-09-12T08:12:21.994Z,19.64
2022-09-12T08:17:23.823Z,19.82
2022-09-12T08:22:25.990Z,20.02
2022-09-12T08:27:27.790Z,20.41
2022-09-12T08:32:29.657Z,20.81
2022-09-12T08:37:32.097Z,21.11
2022-09-12T08:43:10.291Z,21.50
2022-09-12T08:48:14.198Z,21.39
2022-09-12T08:53:24.554Z,21.45
2022-09-12T08:58:29.293Z,21.41
2022-09-12T09:03:37.237Z,21.32
2022-09-12T09:08:50.770Z,21.36
2022-09-12T09:14:45.528Z,21.30
2022-09-12T09:19:59.939Z,21.31
2022-09-12T09:25:08.420Z,21.52
2022-09-12T09:30:21.713Z,21.82
2022-09-12T09:35:43.724Z,21.94
2022-09-12T09:40:57.372Z,22.24
2022-09-12T09:46:00.573Z,22.34
2022-09-12T09:51:07.183Z,22.38
2022-09-12T09:56:33.268Z,22.47
2022-09-12T10:01:35.308Z,22.77
2022-09-12T10:06:38.163Z,22.78
2022-09-12T10:11:45.169Z,22.68
2022-09-12T10:16:54.780Z,22.74
2022-09-12T10:21:57.204Z,23.04
2022-09-12T10:27:21.088Z,23.12
2022-09-12T10:32:44.009Z,22.88
2022-09-12T10:37:58.627Z,22.70
2022-09-12T10:43:02.736Z,22.60
2022-09-12T10:48:26.460Z,22.57
2022-09-12T10:53:48.596Z,22.79
2022-09-12T10:59:08.821Z,23.00
2022-09-12T11:04:36.332Z,23.15
2022-09-12T11:09:48.331Z,23.39
2022-09-12T11:15:03.426Z,23.41
2022-09-12T11:20:33.270Z,23.21
2022-09-12T11:25:39.303Z,23.41
2022-09-12T11:31:00.248Z,23.76
2022-09-12T11:36:08.897Z,23.90
2022-09-12T11:41:20.496Z,23.84
2022-09-12T11:46:34.626Z,23.72
2022-09-12T11:51:55.353Z,23.61
2022-09-12T11:57:16.853Z,23.60
2022-09-12T12:02:30.244Z,23.47
2022-09-12T12:07:45.408Z,23.41
2022-09-12T12:12:48.710Z,23.43
2022-09-12T12:18:24.508Z,23.59
2022-09-12T12:23:31.404Z,23.72
2022-09-12T12:28:42.052Z,23.96
2022-09-12T12:33:44.015Z,24.19
2022-09-12T12:38:45.974Z,24.30
2022-09-12T12:43:53.204Z,24.21
2022-09-12T12:49:28.863Z,24.17
2022-09-12T12:54:41.182Z,23.93
2022-09-12T12:59:56.260Z,23.86
2022-09-12T13:05:02.494Z,23.88
2022-09-12T13:10:07.489Z,24.00
2022-09-12T13:15:37.819Z,24.35
2022-09-12T13:20:52.377Z,24.67
2022-09-12T13:25:57.661Z,24.75
2022-09-12T13:31:24.600Z,24.70
2022-09-12T13:36:51.338Z,24.61
2022-09-12T13:42:00.819Z,24.60
2022-09-12T13:47:03.979Z,24.61
2022-09-12T13:52:17.423Z,24.72
2022-09-12T13:57:37.730Z,24.76
2022-09-12T14:02:40.293Z,24.78
2022-09-12T14:07:54.545Z,24.74
2022-09-12T14:12:57.592Z,24.61
2022-09-12T14:18:01.859Z,24.57
2022-09-12T14:23:16.508Z,24.52
2022-09-12T14:28:23.399Z,24.39
2022-09-12T14:33:26.253Z,24.32
2022-09-12T14:38:44.909Z,24.27
2022-09-12T14:43:51.288Z,24.22
2022-09-12T14:49:00.215Z,24.19
2022-09-12T14:54:02.821Z,24.19
2022-09-12T14:59:35.474Z,24.14
2022-09-12T15:04:45.362Z,24.00
2022-09-12T15:09:47.482Z,23.93
2022-09-12T15:14:49.341Z,23.87
2022-09-12T15:19:51.132Z,23.77
2022-09-12T15:24:53.426Z,23.73
2022-09-12T15:29:55.595Z,23.69
2022-09-12T15:34:57.426Z,23.62
2022-09-12T15:39:59.273Z,23.60
2022-09-12T15:45:02.785Z,23.61
2022-09-12T15:50:05.618Z,23.61
2022-09-12T15:55:16.483Z,23.56
2022-09-12T16:00:18.954Z,23.48
2022-09-12T16:05:24.443Z,23.42
2022-09-12T16:10:29.764Z,23.36
2022-09-12T16:15:31.584Z,23.33
2022-09-12T16:20:33.391Z,23.30
2022-09-12T16:25:35.280Z,23.25
2022-09-12T16:30:37.391Z,23.18
2022-09-12T16:35:39.274Z,23.08
2022-09-12T16:40:41.109Z,23.33
2022-09-12T16:45:46.967Z,23.36
2022-09-12T16:50:57.161Z,23.09
2022-09-12T16:55:59.285Z,22.79
2022-09-12T17:01:03.674Z,22.62
2022-09-12T17:06:11.355Z,22.51
2022-09-12T17:11:15.902Z,22.41
2022-09-12T17:16:17.889Z,22.34
2022-09-12T17:21:21.288Z,22.21
2022-09-12T17:26:23.276Z,22.07
2022-09-12T17:31:25.311Z,21.95
2022-09-12T17:36:28.824Z,21.86
2022-09-12T17:41:32.348Z,21.82
2022-09-12T17:46:37.240Z,21.80
2022-09-12T17:51:40.126Z,21.72
2022-09-12T17:56:43.239Z,21.67
2022-09-12T18:02:03.987Z,21.60
2022-09-12T18:07:06.371Z,22.10
2022-09-12T18:12:09.176Z,22.05
2022-09-12T18:17:11.948Z,21.86
2022-09-12T18:22:13.928Z,21.76
2022-09-12T18:27:16.349Z,21.72
2022-09-12T18:32:18.388Z,21.70
2022-09-12T18:37:20.306Z,21.61
2022-09-12T18:42:22.657Z,21.53
2022-09-12T18:47:24.531Z,21.47
2022-09-12T18:52:26.453Z,21.43
2022-09-12T18:57:30.878Z,21.33
2022-09-12T19:02:32.825Z,21.20
2022-09-12T19:07:35.036Z,20.98
2022-09-12T19:12:36.980Z,20.84
2022-09-12T19:17:38.930Z,20.80
2022-09-12T19:22:41.029Z,20.77
2022-09-12T19:27:43.036Z,20.73
2022-09-12T19:32:45.241Z,20.65
2022-09-12T19:37:47.240Z,20.52
2022-09-12T19:42:49.187Z,20.40
2022-09-12T19:47:51.195Z,20.27
2022-09-12T19:52:53.434Z,20.16
2022-09-12T19:57:55.524Z,20.06
2022-09-12T20:02:57.560Z,19.98
2022-09-12T20:08:00.280Z,19.90
2022-09-12T20:13:02.510Z,19.77
2022-09-12T20:18:04.412Z,19.75
2022-09-12T20:23:06.628Z,19.63
2022-09-12T20:28:08.490Z,19.50
2022-09-12T20:33:10.304Z,19.43
2022-09-12T20:38:12.483Z,19.35
2022-09-12T20:43:14.339Z,19.24
2022-09-12T20:48:16.158Z,19.17
2022-09-12T20:53:18.069Z,19.11
2022-09-12T20:58:21.509Z,19.01
2022-09-12T21:03:23.420Z,18.94
2022-09-12T21:08:25.267Z,18.83
2022-09-12T21:13:27.133Z,18.79
2022-09-12T21:18:29.578Z,18.73
2022-09-12T21:23:32.170Z,18.68
2022-09-12T21:28:34.393Z,18.68
2022-09-12T21:33:36.636Z,18.63
2022-09-12T21:38:38.516Z,18.57
2022-09-12T21:43:41.075Z,18.53
2022-09-12T21:48:43.529Z,18.46
2022-09-12T21:53:45.820Z,18.43
2022-09-12T21:58:47.659Z,18.39
2022-09-12T22:03:50.228Z,18.34
2022-09-12T22:08:52.022Z,18.29
2022-09-12T22:13:53.899Z,18.21
2022-09-12T22:18:56.255Z,18.12
2022-09-12T22:24:16.679Z,18.06
2022-09-12T22:29:18.869Z,17.93
2022-09-12T22:34:20.778Z,17.81
2022-09-12T22:39:23.520Z,17.74
2022-09-12T22:44:25.338Z,17.63
2022-09-12T22:49:27.134Z,17.55
2022-09-12T22:54:28.895Z,17.53
2022-09-12T22:59:31.053Z,17.51
2022-09-12T23:04:33.089Z,17.48
2022-09-12T23:09:35.628Z,17.39
2022-09-12T23:14:37.564Z,17.37
2022-09-12T23:19:39.426Z,17.38
2022-09-12T23:24:41.211Z,17.38
2022-09-12T23:29:43.052Z,17.33
2022-09-12T23:34:46.506Z,17.19
2022-09-12T23:39:49.784Z,17.16
2022-09-12T23:44:51.665Z,17.18
2022-09-12T23:49:53.462Z,17.24
2022-09-12T23:54:55.242Z,17.23
2022-09-12T23:59:57.285Z,17.21
